KENL/ENL METAR and TAF weather

Enter ICAO airport designator
Station Type Date Time Source
KENL METAR 2020/12/01 21:55 UTC NOAA

KENL 012155Z AUTO 00000KT 10SM CLR 03/M05 A3016 RMK AO2 T00301054


Station Type Date Time Source
KENL Decoded METAR 2020/12/01 21:55 UTC NOAA

Centralia, Centralia Municipal Airport, IL, United States (KENL) 38-30-53N 089-05-32W
Dec 01, 2020 - 04:55 PM EST / 2020.12.01 2155 UTC
Wind: Calm:0
Visibility: 10 mile(s):0
Sky conditions: clear
Temperature: 37.4 F (3.0 C)
Dew Point: 22.3 F (-5.4 C)
Relative Humidity: 53%
Pressure (altimeter): 30.16 in. Hg (1021 hPa)
ob: KENL 012155Z AUTO 00000KT 10SM CLR 03/M05 A3016 RMK AO2 T00301054
cycle: 22

Station Type Date Time Source
KENL TAF UTC NOAA

Error!

Example: see airport list